createdAt,value
2023-04-16T15:34:35.736Z,82.76
2023-04-16T15:37:02.291Z,83.14
2023-04-16T15:39:28.864Z,83.63
2023-04-16T15:42:01.543Z,83.75
2023-04-16T15:44:31.081Z,83.28
2023-04-16T15:46:57.614Z,83.93
2023-04-16T15:49:24.792Z,83.31
2023-04-16T15:51:52.012Z,83.59
2023-04-16T15:54:18.805Z,83.63
2023-04-16T15:56:46.615Z,83.33
2023-04-16T15:59:13.598Z,83.20
2023-04-16T16:01:40.257Z,83.41
2023-04-16T16:04:08.076Z,83.54
2023-04-16T16:06:35.043Z,83.26
2023-04-16T16:09:01.831Z,83.20
2023-04-16T16:11:28.425Z,82.77
2023-04-16T16:13:55.098Z,82.70
2023-04-16T16:16:21.923Z,82.55
2023-04-16T16:18:48.769Z,81.91
2023-04-16T16:21:15.207Z,81.99
2023-04-16T16:23:42.078Z,81.57
2023-04-16T16:26:09.239Z,81.82
2023-04-16T16:28:37.929Z,81.54
2023-04-16T16:31:05.955Z,81.80
2023-04-16T16:33:32.854Z,81.70
2023-04-16T16:35:59.334Z,82.05
2023-04-16T16:38:25.873Z,81.95
2023-04-16T16:40:52.348Z,81.40
2023-04-16T16:43:18.852Z,81.13
2023-04-16T16:45:45.339Z,80.49
2023-04-16T16:48:11.941Z,80.04
2023-04-16T16:50:38.541Z,79.26
2023-04-16T16:53:05.442Z,79.18
2023-04-16T16:55:31.891Z,79.68
2023-04-16T16:57:58.654Z,79.76
2023-04-16T17:00:25.558Z,79.97
2023-04-16T17:02:52.632Z,79.67
2023-04-16T17:05:19.900Z,79.46
2023-04-16T17:07:46.771Z,79.74
2023-04-16T17:10:20.074Z,79.65
2023-04-16T17:12:49.682Z,79.90
2023-04-16T17:15:18.578Z,79.89
2023-04-16T17:17:47.050Z,80.10
2023-04-16T17:20:14.328Z,80.00
2023-04-16T17:22:41.113Z,80.23
2023-04-16T17:25:08.285Z,80.42
2023-04-16T17:27:34.869Z,80.68
2023-04-16T17:30:02.095Z,80.95
2023-04-16T17:32:29.707Z,80.87
2023-04-16T17:34:56.554Z,80.72
2023-04-16T17:37:23.495Z,80.66
2023-04-16T17:39:50.491Z,80.84
2023-04-16T17:42:17.396Z,80.79
2023-04-16T17:44:44.169Z,80.65
2023-04-16T17:47:10.831Z,80.58
2023-04-16T17:49:37.319Z,79.89
2023-04-16T17:52:04.053Z,80.23
2023-04-16T17:54:30.613Z,80.35
2023-04-16T17:56:57.632Z,80.18
2023-04-16T17:59:24.193Z,80.32
2023-04-16T18:01:50.989Z,79.86
2023-04-16T18:04:18.152Z,79.62
2023-04-16T18:06:45.156Z,79.36
2023-04-16T18:09:12.168Z,79.26
2023-04-16T18:11:38.638Z,79.26
2023-04-16T18:14:05.253Z,78.97
2023-04-16T18:16:32.339Z,79.09
2023-04-16T18:18:59.125Z,79.04
2023-04-16T18:21:26.012Z,79.20
2023-04-16T18:23:52.460Z,79.01
2023-04-16T18:26:22.505Z,78.80
2023-04-16T18:28:49.483Z,78.70
2023-04-16T18:31:18.988Z,78.12
2023-04-16T18:33:56.449Z,78.49
2023-04-16T18:36:23.771Z,78.70
2023-04-16T18:39:00.905Z,78.62
2023-04-16T18:41:28.717Z,78.80
2023-04-16T18:43:55.388Z,78.97
2023-04-16T18:46:21.911Z,79.07
2023-04-16T18:48:48.481Z,79.00
2023-04-16T18:51:16.291Z,78.78
2023-04-16T18:53:45.437Z,78.63
2023-04-16T18:56:12.383Z,78.43
2023-04-16T18:58:38.864Z,78.18
2023-04-16T19:01:07.815Z,78.21
2023-04-16T19:03:34.586Z,78.18
2023-04-16T19:06:01.613Z,78.06
2023-04-16T19:08:28.136Z,77.95
2023-04-16T19:10:54.613Z,78.22
2023-04-16T19:13:21.301Z,78.13
2023-04-16T19:15:47.876Z,78.33
2023-04-16T19:18:14.375Z,78.60
2023-04-16T19:20:40.942Z,78.40
2023-04-16T19:23:09.166Z,78.46
2023-04-16T19:25:36.520Z,77.82
2023-04-16T19:28:03.886Z,77.97
2023-04-16T19:30:31.192Z,77.84
2023-04-16T19:32:57.890Z,77.59
2023-04-16T19:35:24.459Z,77.23
2023-04-16T19:37:51.202Z,77.47
2023-04-16T19:40:17.832Z,77.61
2023-04-16T19:42:45.688Z,77.50
2023-04-16T19:45:12.378Z,77.56
2023-04-16T19:47:39.061Z,77.83
2023-04-16T19:50:06.521Z,77.72
2023-04-16T19:52:38.631Z,78.08
2023-04-16T19:55:06.821Z,77.81
2023-04-16T19:57:33.512Z,77.87
2023-04-16T20:00:00.293Z,77.50
2023-04-16T20:02:26.977Z,77.56
2023-04-16T20:04:53.683Z,77.46
2023-04-16T20:07:20.598Z,77.40
2023-04-16T20:09:47.259Z,77.85
2023-04-16T20:12:14.391Z,77.44
2023-04-16T20:14:41.974Z,77.80
2023-04-16T20:17:10.058Z,77.92
2023-04-16T20:19:39.802Z,78.44
2023-04-16T20:22:06.680Z,77.81
2023-04-16T20:24:33.406Z,77.74
2023-04-16T20:27:00.118Z,77.97
2023-04-16T20:29:27.064Z,78.13
2023-04-16T20:31:53.528Z,78.51
2023-04-16T20:34:20.002Z,78.24
2023-04-16T20:36:46.508Z,78.21
2023-04-16T20:39:13.115Z,77.86
2023-04-16T20:41:44.077Z,77.93
2023-04-16T20:44:18.120Z,77.92
2023-04-16T20:46:49.435Z,78.29
2023-04-16T20:49:17.636Z,77.96
2023-04-16T20:51:44.205Z,78.13
2023-04-16T20:54:11.015Z,78.67
2023-04-16T20:56:37.519Z,78.09
2023-04-16T20:59:04.124Z,78.31
2023-04-16T21:01:30.928Z,78.70
2023-04-16T21:03:57.757Z,78.81
2023-04-16T21:06:25.033Z,78.65
2023-04-16T21:08:51.572Z,78.22
2023-04-16T21:11:18.140Z,78.07
2023-04-16T21:13:44.871Z,78.28
2023-04-16T21:16:12.444Z,78.50
2023-04-16T21:18:39.137Z,78.65
2023-04-16T21:21:06.028Z,78.66
2023-04-16T21:23:32.476Z,78.07
2023-04-16T21:25:58.918Z,78.47
2023-04-16T21:28:25.352Z,78.29
